Etusivu
METAR-TAF:

METAR-TAF

Lentoasemat :

Salamancan lentoasema

Salamanca, Espanja

Leveyspiiri: 40-57N, Pituuspiiri: 005-30W, korkeus merenpinnasta: 793 m

Tämänhetkinen sää

Tämä raportti tehtiin 37 minuuttia sitten, kello 13.00 UTC
Tuuli 4 kn eri suunnista
Lämpötila 20°C
Kosteus 37%
Ilmanpaine 1020 hPa
Näkyvyys 10 km tai enemmän
ei pilviä alle 1500 m:ssä eikä cumulonimbus-pilviä

METAR: LESA 161300Z VRB04KT CAVOK 20/05 Q1020

Aika: 15:37 (13:37 UTC)

Sääennuste

Tämä raportti tehtiin 5 tuntia ja 37 minuuttia sitten, kello 08.00 UTC
Ennuste voimassa 16. päivästä klo 09 UTC - 17. päivään klo 09 UTC
Tuuli 8 kn idästä
Näkyvyys 10 km tai enemmän
ei pilviä alle 1500 m:ssä eikä cumulonimbus-pilviä

TAF: LESA 160800Z 1609/1709 08008KT CAVOK TX22/1615Z TN06/1706Z

Säähavainnot ja -ennusteet yli 4000 lentoasemalta (METAR- ja TAF-raportit).

Käytössä olevat sääasemat on merkitty karttaan keltaisilla ja punaisilla pisteillä.

Aseta hiiri pisteen päälle nähdäksesi sääaseman nimen.

Klikkaa sitten nähdäksesi säähavainnot ja -ennusteet.

Kartan vaihtaminen: klikkaa mustalla rastilla varustettuja vihreitä pisteitä, niin voit zoomata sisään; viivalla varustettua vihreää pistettä, niin voit zoomata ulos tai vihreitä nuolia, niin pääset viereisille kartoille.


METAR-TAF: